Vol initiation au vol en patrouille.

Vol initiation au vol en patrouille.

À partir de 3 049,00

Découvrez le pilotage du L39 avec un de nos instructeurs lors d’un vol en patrouille inoubliable.

(ATO FR 0147)

Choisissez 3 périodes sur lesquelles vous souhaiteriez voler ! Nous vous recontacterons afin de réserver une de ces 3 périodes ensemble !

UGS : ND Catégorie :

Les tarifs des vols sont établis sur base d’un prix du carburant à 1,20€ TTC du litre.
Toute évolution du prix du carburant au-delà de 1,20€ TTC du litre sera facturée en supplément à raison de 400 litres pour un vol de 30 minutes et 600 litres pour un vol de 45 minutes.

Ce surcoût sera communiqué préalablement aux vols dès connaissance des prix du carburant qui nous sont communiqués chaque début de mois.

En dehors des éventuels ajustements liés au carburant, les tarifs sont valables jusqu’au 31.12.23.

Vidéo GOPRO incluse dans la prestation
Facturation "No show" (le passager ne se présente pas alors que le vol est confirmé): 500 € TTC

Option à partir des vols 2023:
Vidéo 360° (GoPro Max) au prix de 150 € TTC

Informations complémentaires

Durée

30 minutes, 45 minutes

Voir toute les actualités.

Avion / Hélicoptère / Simulateur*
Avion
METAR :

LFQA 011100Z AUTO 29013KT 260V320 9999 SCT025 09/03 Q1027


vue en direct sur l'aérodrome
facturation mentions légales politique de confidentialité
Cochet Concept
cx